Time;durP1;ratioP1;P1;durP2;ratioP2;P2;SDS_P1;SDS_P2;PMS_P1;PMS_P2;Temp;Humidity;BMP_temperature;BMP_pressure;BME280_temperature;BME280_humidity;BME280_pressure;Samples;Min_cycle;Max_cycle;Signal;HPM_P1;HPM_P2
2022/07/09 03:13:11;;;;;;;16.10;14.93;;;13.40;99.90;;;;;;4949595;23;20857;-72
2022/07/09 03:15:37;;;;;;;17.40;15.60;;;13.40;99.90;;;;;;4953152;29;20961;-72
2022/07/09 03:18:07;;;;;;;16.93;15.83;;;13.40;99.90;;;;;;4951904;29;20543;-71
2022/07/09 03:20:33;;;;;;;15.80;14.90;;;13.50;99.90;;;;;;4946943;29;20548;-71
2022/07/09 03:23:00;;;;;;;16.90;15.50;;;13.50;99.90;;;;;;4934251;29;20453;-71
2022/07/09 03:25:27;;;;;;;15.87;15.00;;;13.40;99.90;;;;;;4934134;29;20959;-72
2022/07/09 03:27:54;;;;;;;15.93;14.97;;;13.40;99.90;;;;;;4934537;29;20453;-72
2022/07/09 03:30:23;;;;;;;16.97;15.77;;;13.40;99.90;;;;;;4934353;29;20553;-72
2022/07/09 03:32:50;;;;;;;17.30;15.80;;;13.40;99.90;;;;;;4933964;29;20446;-72
2022/07/09 03:35:17;;;;;;;16.50;15.50;;;13.40;99.90;;;;;;4934106;29;20718;-72
2022/07/09 03:37:44;;;;;;;17.10;15.90;;;13.30;99.90;;;;;;4933892;29;20880;-72
2022/07/09 03:40:11;;;;;;;15.93;15.00;;;13.30;99.90;;;;;;4934047;29;20442;-72
2022/07/09 03:42:38;;;;;;;15.60;14.70;;;13.30;99.90;;;;;;4933296;29;21014;-72
2022/07/09 03:45:05;;;;;;;16.37;15.07;;;13.40;99.90;;;;;;4934069;29;20557;-72
2022/07/09 03:47:33;;;;;;;15.43;14.43;;;13.40;99.90;;;;;;4933860;29;20450;-72
2022/07/09 03:50:00;;;;;;;14.03;13.33;;;13.50;99.90;;;;;;4933922;29;20476;-72
2022/07/09 03:52:27;;;;;;;15.60;14.43;;;13.50;99.90;;;;;;4933674;29;20467;-72
2022/07/09 03:54:54;;;;;;;15.87;14.93;;;13.50;99.90;;;;;;4933692;29;20457;-73
2022/07/09 03:57:21;;;;;;;15.87;15.07;;;13.50;99.90;;;;;;4933327;29;20508;-73
2022/07/09 03:59:47;;;;;;;15.93;15.07;;;13.50;99.90;;;;;;4933960;29;20468;-74
2022/07/09 04:02:14;;;;;;;15.73;14.83;;;13.40;99.90;;;;;;4933447;29;20524;-73
2022/07/09 04:04:43;;;;;;;15.13;14.13;;;13.40;99.90;;;;;;4933860;29;20460;-73
2022/07/09 04:07:10;;;;;;;15.33;14.23;;;13.40;99.90;;;;;;4933742;29;20525;-73
2022/07/09 04:09:37;;;;;;;15.30;14.43;;;13.40;99.90;;;;;;4933925;29;20457;-73
2022/07/09 04:12:04;;;;;;;15.00;14.00;;;13.40;99.90;;;;;;4933233;29;20549;-73
2022/07/09 04:14:30;;;;;;;15.20;14.50;;;13.40;99.90;;;;;;4933323;29;20457;-73
2022/07/09 04:16:57;;;;;;;15.27;14.30;;;13.50;99.90;;;;;;4933494;29;20453;-73
2022/07/09 04:19:24;;;;;;;15.93;14.90;;;13.50;99.90;;;;;;4935060;29;20465;-73
2022/07/09 04:21:52;;;;;;;15.50;14.60;;;13.60;99.90;;;;;;4942935;29;20548;-73
2022/07/09 04:24:18;;;;;;;15.50;14.60;;;13.60;99.90;;;;;;4933467;29;20453;-73
2022/07/09 04:26:46;;;;;;;16.10;15.33;;;13.70;99.90;;;;;;4933079;29;20580;-73
2022/07/09 04:29:12;;;;;;;15.80;14.80;;;13.70;99.90;;;;;;4933707;29;20454;-73
2022/07/09 04:31:39;;;;;;;15.90;14.87;;;13.80;99.90;;;;;;4933516;29;20502;-72
2022/07/09 04:34:06;;;;;;;15.00;14.00;;;13.90;99.90;;;;;;4933593;29;20517;-73
2022/07/09 04:36:32;;;;;;;16.00;15.10;;;14.00;99.90;;;;;;4933197;29;20911;-73
2022/07/09 04:39:00;;;;;;;15.17;14.17;;;14.00;99.90;;;;;;4932942;29;21034;-73
2022/07/09 04:41:28;;;;;;;14.57;13.60;;;14.10;99.90;;;;;;4933158;29;20876;-73
2022/07/09 04:43:55;;;;;;;14.93;13.93;;;14.10;99.90;;;;;;4933504;29;20466;-73
2022/07/09 04:46:22;;;;;;;15.43;13.83;;;14.20;99.90;;;;;;4933464;29;20454;-73
2022/07/09 04:48:48;;;;;;;16.70;15.03;;;14.30;99.90;;;;;;4933607;29;20489;-73
2022/07/09 04:51:15;;;;;;;14.17;13.40;;;14.30;99.90;;;;;;4933454;29;20453;-73
2022/07/09 04:53:42;;;;;;;14.80;13.97;;;14.40;99.90;;;;;;4932170;29;20513;-74
2022/07/09 04:56:10;;;;;;;14.23;13.30;;;14.50;99.90;;;;;;4933180;29;21003;-73
2022/07/09 04:58:37;;;;;;;13.83;13.13;;;14.50;99.90;;;;;;4933180;29;20460;-74
2022/07/09 05:01:04;;;;;;;14.93;14.10;;;14.60;99.90;;;;;;4932893;29;20983;-73
2022/07/09 05:03:31;;;;;;;14.60;13.80;;;14.70;99.90;;;;;;4932764;29;20454;-73
2022/07/09 05:05:58;;;;;;;15.77;14.63;;;14.80;99.90;;;;;;4932715;29;20457;-73
2022/07/09 05:08:25;;;;;;;14.27;13.37;;;14.90;99.90;;;;;;4932851;29;20613;-73
2022/07/09 05:10:52;;;;;;;15.50;14.20;;;15.10;99.90;;;;;;4932990;29;20477;-73
2022/07/09 05:13:20;;;;;;;14.17;13.37;;;15.20;99.90;;;;;;4932736;29;20457;-74
2022/07/09 05:15:46;;;;;;;13.67;12.97;;;15.20;99.90;;;;;;4932822;29;21007;-73
2022/07/09 05:18:13;;;;;;;14.60;13.70;;;15.10;99.90;;;;;;4932453;29;20567;-73
2022/07/09 05:20:42;;;;;;;13.80;12.97;;;15.20;99.90;;;;;;4934906;29;21005;-74
2022/07/09 05:23:08;;;;;;;14.43;13.47;;;15.30;99.90;;;;;;4941215;29;20489;-73
2022/07/09 05:25:35;;;;;;;13.60;12.77;;;15.40;99.90;;;;;;4932695;29;20454;-73
2022/07/09 05:28:02;;;;;;;14.80;13.80;;;15.70;99.90;;;;;;4932370;29;20518;-74
2022/07/09 05:30:30;;;;;;;13.97;12.90;;;15.70;99.90;;;;;;4932787;29;20453;-73
2022/07/09 05:32:56;;;;;;;13.33;12.40;;;16.20;99.90;;;;;;4932720;29;20457;-73
2022/07/09 05:35:23;;;;;;;13.70;12.90;;;16.70;99.90;;;;;;4932683;29;20524;-73
2022/07/09 05:37:50;;;;;;;13.33;12.53;;;17.10;99.90;;;;;;4932697;29;20477;-74
2022/07/09 05:40:16;;;;;;;13.47;12.47;;;17.30;99.90;;;;;;4932332;29;20738;-73
2022/07/09 05:42:43;;;;;;;14.43;13.10;;;17.60;99.90;;;;;;4932373;29;20526;-73
2022/07/09 05:45:10;;;;;;;13.63;12.93;;;17.50;99.90;;;;;;4932608;29;20516;-73
2022/07/09 05:47:38;;;;;;;12.63;11.93;;;17.50;99.90;;;;;;4932526;29;20497;-73
2022/07/09 05:50:06;;;;;;;13.33;12.53;;;17.50;99.90;;;;;;4932277;29;21007;-74
2022/07/09 05:52:33;;;;;;;12.40;11.87;;;17.70;99.90;;;;;;4932440;29;20450;-74
2022/07/09 05:55:00;;;;;;;13.63;12.73;;;18.20;99.90;;;;;;4932316;29;20752;-73
2022/07/09 05:57:26;;;;;;;13.50;12.60;;;18.60;99.90;;;;;;4932401;29;20873;-74
2022/07/09 05:59:53;;;;;;;15.00;13.87;;;18.80;99.90;;;;;;4932176;29;20461;-74
2022/07/09 06:02:21;;;;;;;14.10;13.00;;;19.00;99.90;;;;;;4932378;29;20453;-74
2022/07/09 06:04:49;;;;;;;14.30;13.40;;;19.30;99.90;;;;;;4932648;29;20461;-74
2022/07/09 06:07:16;;;;;;;13.97;12.93;;;19.30;99.90;;;;;;4935829;29;20584;-74
2022/07/09 06:09:42;;;;;;;13.23;12.53;;;19.50;99.90;;;;;;4935696;29;20461;-73
2022/07/09 06:12:09;;;;;;;14.10;13.37;;;19.50;99.90;;;;;;4935641;29;20493;-75
2022/07/09 06:14:36;;;;;;;13.40;12.80;;;19.70;99.90;;;;;;4936014;29;20494;-74
2022/07/09 06:17:06;;;;;;;13.60;12.90;;;19.70;99.90;;;;;;4935591;29;20947;-74
2022/07/09 06:19:33;;;;;;;13.50;12.60;;;19.50;99.90;;;;;;4935559;29;20549;-75
2022/07/09 06:22:01;;;;;;;13.20;12.50;;;19.70;99.90;;;;;;4935529;29;20464;-73
2022/07/09 06:24:29;;;;;;;13.40;12.70;;;19.90;99.80;;;;;;4935555;29;20516;-73
2022/07/09 06:26:56;;;;;;;14.87;13.83;;;19.60;99.90;;;;;;4935453;29;20461;-74
2022/07/09 06:29:23;;;;;;;15.00;13.70;;;19.70;99.90;;;;;;4935841;29;20454;-74
2022/07/09 06:31:50;;;;;;;13.83;13.13;;;19.90;99.90;;;;;;4935611;29;20947;-74
2022/07/09 06:34:17;;;;;;;13.57;12.87;;;20.00;99.90;;;;;;4935517;29;20464;-74
2022/07/09 06:36:44;;;;;;;13.57;12.80;;;20.10;99.50;;;;;;4935475;29;20460;-75
2022/07/09 06:42:04;;;;;;;14.33;13.20;;;20.70;98.70;;;;;;4935359;29;20440;-75
2022/07/09 06:44:30;;;;;;;14.03;13.13;;;20.80;98.40;;;;;;4934924;29;20714;-75
2022/07/09 06:46:57;;;;;;;13.33;12.73;;;21.30;97.40;;;;;;4935302;29;20512;-76
2022/07/09 06:49:24;;;;;;;13.27;12.57;;;21.20;97.00;;;;;;4935486;29;20606;-76
2022/07/09 06:51:50;;;;;;;12.40;11.80;;;20.70;97.70;;;;;;4935405;29;20991;-75
2022/07/09 06:54:18;;;;;;;12.47;11.67;;;20.40;98.40;;;;;;4935032;29;20457;-75
2022/07/09 06:56:46;;;;;;;13.63;12.93;;;20.20;98.80;;;;;;4934846;29;20947;-75
2022/07/09 06:59:12;;;;;;;13.10;12.50;;;20.20;99.30;;;;;;4934910;29;20576;-75
2022/07/09 07:01:39;;;;;;;12.80;12.13;;;19.80;99.90;;;;;;4935110;29;20461;-74
2022/07/09 07:04:06;;;;;;;13.20;12.40;;;20.10;99.90;;;;;;4935229;29;20814;-74
2022/07/09 07:06:33;;;;;;;13.53;12.67;;;20.50;99.20;;;;;;4934739;29;20457;-74
2022/07/09 07:09:00;;;;;;;13.43;12.50;;;21.00;98.20;;;;;;4934715;29;20915;-74
2022/07/09 07:11:28;;;;;;;13.20;12.50;;;21.70;96.60;;;;;;4934365;29;20568;-75
2022/07/09 07:13:54;;;;;;;12.90;12.27;;;21.90;95.90;;;;;;4935152;29;20461;-74
2022/07/09 07:16:21;;;;;;;13.40;12.40;;;22.30;95.50;;;;;;4934016;29;20462;-76
2022/07/09 07:18:48;;;;;;;13.40;12.60;;;22.80;94.70;;;;;;4940808;28;20484;-75
2022/07/09 07:21:14;;;;;;;12.50;11.60;;;23.10;94.00;;;;;;4945041;29;20814;-76
2022/07/09 07:23:41;;;;;;;13.53;12.73;;;23.30;93.00;;;;;;4951356;29;20452;-75
2022/07/09 07:26:08;;;;;;;13.30;12.60;;;23.30;92.60;;;;;;4953592;29;21009;-75
2022/07/09 07:28:36;;;;;;;13.37;12.73;;;23.60;91.90;;;;;;4953727;29;20596;-76
2022/07/09 07:31:03;;;;;;;13.10;12.40;;;23.80;91.70;;;;;;4953984;29;20449;-76
2022/07/09 07:33:30;;;;;;;14.63;13.33;;;23.90;91.20;;;;;;4953753;29;20452;-76
2022/07/09 07:35:56;;;;;;;13.13;12.53;;;24.00;90.40;;;;;;4953615;28;20459;-76
2022/07/09 07:38:27;;;;;;;14.23;12.90;;;24.30;89.50;;;;;;4953722;29;20866;-75
2022/07/09 07:40:54;;;;;;;12.70;12.00;;;24.30;88.50;;;;;;4953597;29;20543;-75
2022/07/09 07:43:20;;;;;;;12.70;11.80;;;24.50;87.00;;;;;;4953799;28;20452;-75
2022/07/09 07:45:49;;;;;;;12.50;11.80;;;24.10;85.70;;;;;;4953231;28;20626;-76
2022/07/09 07:48:15;;;;;;;12.80;11.90;;;24.30;88.00;;;;;;4953197;28;20527;-75
2022/07/09 07:50:42;;;;;;;12.00;11.40;;;25.00;85.80;;;;;;4952948;28;20786;-75
2022/07/09 07:53:09;;;;;;;12.50;11.70;;;25.90;82.30;;;;;;4952962;29;20456;-75
2022/07/09 07:55:36;;;;;;;13.47;12.53;;;26.40;80.20;;;;;;4953061;29;20524;-75
2022/07/09 07:58:02;;;;;;;13.37;12.87;;;26.80;79.00;;;;;;4952905;29;20449;-73
2022/07/09 08:00:29;;;;;;;13.13;12.30;;;27.20;77.20;;;;;;4952746;29;20468;-74
2022/07/09 08:02:57;;;;;;;12.83;12.13;;;27.10;75.10;;;;;;4952640;29;20519;-75
2022/07/09 08:05:25;;;;;;;13.00;12.40;;;26.90;73.20;;;;;;4952900;29;20459;-75
2022/07/09 08:07:51;;;;;;;13.20;12.50;;;27.30;73.80;;;;;;4952936;29;20584;-75
2022/07/09 08:10:18;;;;;;;13.27;12.67;;;27.60;72.30;;;;;;4952433;29;20487;-75
2022/07/09 08:12:45;;;;;;;12.97;12.23;;;27.70;70.70;;;;;;4952620;29;20480;-74
2022/07/09 08:15:12;;;;;;;13.37;12.47;;;27.50;70.20;;;;;;4953182;29;20507;-74
2022/07/09 08:17:39;;;;;;;12.80;12.27;;;27.70;70.60;;;;;;4952693;29;20560;-75
2022/07/09 08:20:08;;;;;;;12.27;11.77;;;28.00;69.40;;;;;;4952687;29;20460;-74
2022/07/09 08:22:35;;;;;;;12.10;11.50;;;28.00;66.10;;;;;;4952873;29;20503;-74
2022/07/09 08:25:02;;;;;;;13.87;12.83;;;28.20;68.30;;;;;;4953148;29;20995;-74
2022/07/09 08:27:29;;;;;;;13.93;12.67;;;28.10;67.80;;;;;;4952512;28;20457;-74
2022/07/09 08:29:55;;;;;;;12.70;12.10;;;28.00;69.80;;;;;;4952477;29;20971;-75
2022/07/09 08:32:22;;;;;;;13.03;12.07;;;28.60;66.30;;;;;;4952679;29;20448;-75
2022/07/09 08:34:49;;;;;;;13.60;12.60;;;28.80;65.50;;;;;;4952335;29;20452;-74
2022/07/09 08:37:17;;;;;;;13.63;12.67;;;28.90;65.10;;;;;;4952113;29;20452;-74
2022/07/09 08:39:44;;;;;;;12.50;11.90;;;28.50;65.80;;;;;;4952208;29;20448;-75
2022/07/09 08:42:11;;;;;;;12.93;12.13;;;28.90;65.70;;;;;;4952390;29;20463;-74
2022/07/09 08:44:42;;;;;;;13.23;12.63;;;29.20;63.10;;;;;;4952532;29;20453;-75
2022/07/09 08:47:11;;;;;;;13.63;12.30;;;29.20;63.90;;;;;;4952581;29;20456;-75
2022/07/09 08:49:38;;;;;;;11.50;11.10;;;29.70;61.80;;;;;;4952170;29;20504;-74
2022/07/09 08:52:07;;;;;;;12.60;11.80;;;30.10;61.30;;;;;;4952346;29;20954;-75
2022/07/09 08:54:37;;;;;;;13.90;13.17;;;31.00;59.20;;;;;;4952031;29;20452;-75
2022/07/09 08:57:04;;;;;;;13.10;12.40;;;31.80;56.80;;;;;;4952357;29;20457;-75
2022/07/09 08:59:31;;;;;;;12.97;12.27;;;31.90;56.80;;;;;;4951905;29;20455;-75
2022/07/09 09:01:58;;;;;;;12.10;11.60;;;32.50;56.30;;;;;;4951793;29;20536;-75
2022/07/09 09:04:25;;;;;;;13.27;12.67;;;33.00;54.40;;;;;;4952100;29;20499;-75
2022/07/09 09:06:53;;;;;;;14.43;13.60;;;34.00;52.50;;;;;;4951941;29;20480;-75
2022/07/09 09:09:20;;;;;;;13.10;12.40;;;34.50;49.90;;;;;;4952130;29;20444;-75
2022/07/09 09:11:50;;;;;;;12.83;12.30;;;34.20;51.10;;;;;;4951224;29;20974;-75
2022/07/09 09:14:21;;;;;;;12.50;12.00;;;34.40;50.60;;;;;;4951624;29;20483;-74
2022/07/09 09:16:48;;;;;;;13.60;12.70;;;34.00;50.30;;;;;;4950044;29;20468;-74
2022/07/09 09:19:15;;;;;;;13.03;12.30;;;34.10;51.10;;;;;;4951848;29;20495;-74
2022/07/09 09:21:42;;;;;;;12.87;12.27;;;33.40;50.20;;;;;;4951962;29;20500;-76
2022/07/09 09:24:08;;;;;;;12.80;12.30;;;32.20;52.20;;;;;;4952185;29;20461;-76
2022/07/09 09:26:37;;;;;;;13.30;12.70;;;32.30;52.30;;;;;;4951526;29;20445;-74
2022/07/09 09:29:05;;;;;;;12.60;11.90;;;32.80;51.20;;;;;;4952146;29;20829;-75
2022/07/09 09:31:33;;;;;;;13.20;12.50;;;32.80;51.50;;;;;;4952014;29;20555;-76
2022/07/09 09:34:12;;;;;;;13.10;12.40;;;32.80;50.80;;;;;;4952275;29;20498;-74
2022/07/09 09:36:40;;;;;;;12.40;11.80;;;32.30;51.70;;;;;;4951968;29;20432;-76
2022/07/09 09:39:15;;;;;;;12.47;11.87;;;32.80;51.20;;;;;;4951752;28;20491;-75
2022/07/09 09:41:43;;;;;;;12.07;11.67;;;33.00;50.30;;;;;;4955337;29;20456;-75
2022/07/09 09:44:13;;;;;;;12.90;12.40;;;33.20;48.40;;;;;;4955666;29;20452;-75
2022/07/09 09:46:41;;;;;;;12.30;11.90;;;33.70;48.00;;;;;;4955735;29;20796;-75
2022/07/09 09:49:09;;;;;;;12.33;11.93;;;33.70;47.50;;;;;;4955917;29;20448;-75
2022/07/09 09:51:38;;;;;;;12.53;12.13;;;33.50;47.70;;;;;;4955644;29;20963;-75
2022/07/09 09:54:05;;;;;;;12.80;12.30;;;33.80;48.50;;;;;;4955741;29;20456;-74
2022/07/09 09:56:33;;;;;;;13.60;13.10;;;34.20;48.10;;;;;;4955525;29;20456;-75
2022/07/09 09:59:00;;;;;;;13.37;12.60;;;34.40;47.70;;;;;;4955439;29;20958;-74
2022/07/09 10:01:29;;;;;;;13.33;12.80;;;34.80;47.10;;;;;;4955194;29;20962;-75
2022/07/09 10:03:57;;;;;;;12.23;11.70;;;35.60;45.20;;;;;;4955440;29;20878;-75
2022/07/09 10:06:26;;;;;;;13.63;12.90;;;34.70;46.60;;;;;;4955277;29;20452;-75
2022/07/09 10:08:53;;;;;;;13.47;12.87;;;35.10;46.10;;;;;;4955502;29;20448;-76
2022/07/09 10:11:20;;;;;;;13.80;13.00;;;35.20;46.10;;;;;;4954884;29;20499;-75
2022/07/09 10:13:51;;;;;;;13.33;12.73;;;34.70;47.20;;;;;;4955287;29;20456;-75
2022/07/09 10:16:18;;;;;;;13.60;13.00;;;34.70;47.50;;;;;;4955162;29;20545;-74
2022/07/09 10:18:53;;;;;;;13.60;13.10;;;35.60;45.70;;;;;;4954919;29;21048;-74
2022/07/09 10:21:30;;;;;;;13.33;12.60;;;36.40;44.20;;;;;;4955187;29;20459;-74
2022/07/09 10:23:57;;;;;;;13.70;12.93;;;36.80;43.70;;;;;;4955432;29;20439;-74
2022/07/09 10:26:34;;;;;;;13.83;13.33;;;36.90;42.40;;;;;;4954812;29;20468;-74
2022/07/09 10:29:01;;;;;;;14.60;14.00;;;37.60;41.90;;;;;;4955282;29;20452;-75
2022/07/09 10:31:31;;;;;;;14.47;13.90;;;37.50;40.70;;;;;;4954992;29;20468;-74
2022/07/09 10:34:08;;;;;;;13.77;13.10;;;37.00;41.00;;;;;;4954747;29;20468;-74
2022/07/09 10:36:34;;;;;;;15.43;14.57;;;35.10;43.20;;;;;;4954897;29;20459;-74
2022/07/09 10:39:12;;;;;;;13.47;12.97;;;34.60;43.90;;;;;;4954544;29;20492;-74
2022/07/09 10:41:38;;;;;;;14.00;13.40;;;34.80;43.80;;;;;;4954510;29;20456;-75
2022/07/09 10:44:05;;;;;;;13.63;13.03;;;35.20;43.10;;;;;;4954445;29;20954;-74
2022/07/09 10:46:33;;;;;;;13.40;12.90;;;35.40;43.80;;;;;;4954488;29;20496;-74
2022/07/09 10:49:01;;;;;;;13.50;12.97;;;35.80;42.20;;;;;;4954115;29;20830;-74
2022/07/09 10:51:28;;;;;;;13.07;12.57;;;35.30;42.80;;;;;;4953156;28;20871;-75
2022/07/09 10:53:55;;;;;;;13.20;12.70;;;34.90;42.80;;;;;;4954424;29;20540;-74
2022/07/09 10:56:22;;;;;;;14.17;13.30;;;33.70;44.40;;;;;;4954500;29;20635;-74
2022/07/09 10:58:51;;;;;;;14.17;13.47;;;33.40;45.10;;;;;;4954290;29;20511;-74
2022/07/09 11:01:21;;;;;;;12.03;11.53;;;33.80;44.50;;;;;;4954063;29;20950;-75
2022/07/09 11:03:51;;;;;;;13.03;12.53;;;33.40;44.80;;;;;;4954050;29;20508;-74
2022/07/09 11:06:19;;;;;;;12.70;12.20;;;32.40;46.60;;;;;;4953975;29;20894;-74
2022/07/09 11:08:46;;;;;;;12.37;11.87;;;31.70;47.70;;;;;;4953777;29;20958;-75
2022/07/09 11:11:20;;;;;;;12.30;11.90;;;30.90;48.80;;;;;;4951715;29;20492;-75
2022/07/09 11:13:51;;;;;;;13.10;12.60;;;31.00;48.70;;;;;;4953984;29;20445;-75
2022/07/09 11:16:23;;;;;;;13.00;12.50;;;32.30;47.10;;;;;;4953182;29;20457;-76
2022/07/09 11:18:50;;;;;;;14.57;13.77;;;33.40;45.70;;;;;;4953927;29;20584;-75
2022/07/09 11:21:24;;;;;;;13.50;13.00;;;34.40;43.90;;;;;;4954085;29;20457;-76
2022/07/09 11:23:51;;;;;;;12.33;11.87;;;35.00;43.10;;;;;;4953788;29;20456;-75
2022/07/09 11:26:18;;;;;;;14.47;13.47;;;35.40;42.90;;;;;;4953409;29;20457;-75
2022/07/09 11:28:47;;;;;;;13.40;12.70;;;35.00;43.10;;;;;;4953803;29;20457;-75
2022/07/09 11:31:14;;;;;;;13.27;12.60;;;33.90;43.80;;;;;;4953714;29;20460;-75
2022/07/09 11:36:36;;;;;;;12.20;11.70;;;32.40;45.00;;;;;;4953740;29;20604;-75
2022/07/09 11:39:03;;;;;;;11.80;11.30;;;31.70;46.10;;;;;;4951419;29;20499;-76
2022/07/09 11:41:40;;;;;;;12.50;12.00;;;31.20;46.90;;;;;;4953098;29;20460;-75
2022/07/09 11:44:07;;;;;;;12.20;11.70;;;30.90;48.10;;;;;;4953507;29;20463;-76
2022/07/09 11:46:34;;;;;;;11.90;11.40;;;30.60;48.70;;;;;;4953345;29;20479;-74
2022/07/09 11:49:01;;;;;;;12.63;12.20;;;30.50;49.50;;;;;;4952767;29;20463;-74
2022/07/09 11:51:31;;;;;;;12.73;12.30;;;31.00;48.40;;;;;;4953468;29;20457;-75
2022/07/09 11:53:58;;;;;;;12.90;12.30;;;32.30;46.40;;;;;;4953346;29;20459;-75
2022/07/09 11:56:25;;;;;;;13.10;12.50;;;32.40;45.80;;;;;;4953486;29;20879;-75
2022/07/09 11:58:52;;;;;;;12.80;12.30;;;32.30;46.10;;;;;;4953476;29;20459;-75
2022/07/09 12:01:38;;;;;;;13.77;13.03;;;32.50;45.30;;;;;;4953117;29;20539;-75
2022/07/09 12:04:05;;;;;;;12.20;11.80;;;32.00;45.60;;;;;;4950491;28;20512;-75
2022/07/09 12:06:33;;;;;;;12.60;11.93;;;31.00;48.00;;;;;;4951850;29;20459;-75
2022/07/09 12:09:01;;;;;;;12.83;12.10;;;30.30;49.90;;;;;;4952295;29;20460;-75
2022/07/09 12:11:28;;;;;;;12.10;11.60;;;29.60;51.30;;;;;;4951739;29;20484;-75
2022/07/09 12:13:55;;;;;;;12.90;12.30;;;29.90;51.60;;;;;;4952229;29;20492;-75
2022/07/09 12:16:22;;;;;;;12.80;12.30;;;30.40;51.10;;;;;;4952376;29;20484;-75
2022/07/09 12:18:49;;;;;;;12.83;12.33;;;31.70;49.30;;;;;;4951807;29;20460;-75
2022/07/09 12:21:15;;;;;;;11.60;11.00;;;32.60;48.00;;;;;;4951731;29;20500;-75
2022/07/09 12:23:43;;;;;;;12.80;12.10;;;33.00;47.30;;;;;;4951675;29;20484;-75
2022/07/09 12:26:10;;;;;;;11.90;11.47;;;32.90;47.10;;;;;;4951850;29;20893;-75
2022/07/09 12:28:37;;;;;;;12.80;12.30;;;32.10;47.60;;;;;;4952110;29;20468;-75
2022/07/09 12:31:03;;;;;;;12.43;12.03;;;32.20;48.00;;;;;;4951601;29;20511;-74
2022/07/09 12:33:30;;;;;;;12.27;11.77;;;32.50;47.10;;;;;;4951489;29;20863;-75
2022/07/09 12:35:57;;;;;;;12.70;12.30;;;32.30;46.70;;;;;;4951535;29;20461;-75
2022/07/09 12:38:23;;;;;;;12.60;12.20;;;32.30;47.20;;;;;;4951838;29;20449;-75
2022/07/09 12:40:52;;;;;;;12.23;11.83;;;31.70;48.60;;;;;;4951158;29;20512;-74
2022/07/09 12:43:20;;;;;;;13.50;12.70;;;31.30;48.80;;;;;;4951529;29;20451;-75
2022/07/09 12:45:46;;;;;;;13.23;12.63;;;31.60;48.80;;;;;;4951470;29;20453;-75
2022/07/09 12:48:13;;;;;;;12.77;12.17;;;32.50;47.30;;;;;;4951210;29;20882;-75
2022/07/09 12:50:40;;;;;;;13.00;12.40;;;32.30;46.10;;;;;;4951560;29;20449;-75
2022/07/09 12:53:06;;;;;;;12.67;12.07;;;32.00;47.50;;;;;;4951477;29;20452;-74
2022/07/09 12:55:33;;;;;;;12.30;11.80;;;32.20;47.30;;;;;;4951063;29;20464;-76
2022/07/09 12:58:01;;;;;;;13.40;12.90;;;32.30;46.50;;;;;;4951211;29;20456;-74
2022/07/09 13:00:28;;;;;;;12.77;12.00;;;32.60;46.70;;;;;;4950891;29;20554;-73
2022/07/09 13:02:54;;;;;;;12.57;12.07;;;32.70;46.30;;;;;;4951237;29;20453;-74
2022/07/09 13:05:21;;;;;;;13.07;12.37;;;33.00;46.40;;;;;;4951209;29;20468;-73
2022/07/09 13:07:48;;;;;;;12.17;11.77;;;32.50;47.10;;;;;;4951005;29;20535;-74
2022/07/09 13:10:14;;;;;;;12.90;12.40;;;33.20;47.30;;;;;;4950824;29;21030;-74
2022/07/09 13:12:41;;;;;;;11.70;11.30;;;33.90;45.70;;;;;;4950695;29;20607;-74
2022/07/09 13:15:10;;;;;;;12.37;11.97;;;33.60;44.30;;;;;;4950577;29;20484;-74
2022/07/09 13:17:37;;;;;;;12.23;11.83;;;33.20;45.00;;;;;;4951055;29;20873;-74
2022/07/09 13:20:04;;;;;;;12.30;11.90;;;33.00;45.20;;;;;;4950835;29;20563;-74
2022/07/09 13:22:31;;;;;;;12.80;12.23;;;31.70;46.50;;;;;;4950912;29;20460;-73
2022/07/09 13:24:58;;;;;;;11.80;11.40;;;31.80;47.10;;;;;;4950628;29;20453;-74
2022/07/09 13:27:24;;;;;;;12.33;11.83;;;32.60;46.10;;;;;;4951099;29;20452;-74
2022/07/09 13:29:52;;;;;;;11.10;10.60;;;33.00;46.10;;;;;;4951039;29;20460;-74
2022/07/09 13:32:20;;;;;;;12.40;11.90;;;33.90;45.00;;;;;;4950826;29;20570;-74
2022/07/09 13:34:47;;;;;;;12.63;12.23;;;34.00;43.50;;;;;;4950686;29;20452;-75
2022/07/09 13:37:14;;;;;;;13.30;12.80;;;34.60;41.90;;;;;;4950682;29;20453;-75
2022/07/09 13:39:40;;;;;;;13.50;12.93;;;34.60;42.10;;;;;;4950716;29;20485;-74
2022/07/09 13:42:07;;;;;;;12.47;11.97;;;34.30;43.30;;;;;;4950987;29;20515;-74
2022/07/09 13:44:34;;;;;;;11.23;10.83;;;33.50;43.00;;;;;;4950639;29;20459;-74
2022/07/09 13:47:01;;;;;;;12.50;12.10;;;32.90;44.00;;;;;;4950617;29;20484;-75
2022/07/09 13:49:29;;;;;;;12.07;11.57;;;32.50;44.60;;;;;;4950740;29;20463;-75
2022/07/09 13:51:57;;;;;;;12.20;11.70;;;32.10;45.30;;;;;;4950740;29;20842;-74
2022/07/09 13:54:23;;;;;;;12.40;11.90;;;32.10;45.00;;;;;;4948021;28;20473;-75
2022/07/09 13:56:50;;;;;;;13.00;12.50;;;32.50;45.50;;;;;;4951330;29;20524;-75
2022/07/09 13:59:17;;;;;;;12.73;12.13;;;32.50;45.20;;;;;;4951061;29;20466;-75
2022/07/09 14:01:44;;;;;;;12.33;11.83;;;32.50;45.50;;;;;;4951214;29;20453;-75
2022/07/09 14:04:10;;;;;;;12.47;11.80;;;31.80;45.80;;;;;;4951448;29;20511;-75
2022/07/09 14:06:39;;;;;;;13.50;12.90;;;31.20;47.20;;;;;;4951394;29;20868;-75
2022/07/09 14:09:06;;;;;;;13.50;12.90;;;30.80;47.50;;;;;;4951212;29;20547;-75
2022/07/09 14:11:32;;;;;;;12.53;12.00;;;30.80;47.20;;;;;;4950643;29;20856;-74
2022/07/09 14:14:00;;;;;;;12.00;11.60;;;30.80;47.10;;;;;;4951043;29;20816;-75
2022/07/09 14:16:27;;;;;;;11.70;11.10;;;30.60;47.50;;;;;;4950889;29;20545;-73
2022/07/09 14:18:55;;;;;;;11.70;11.00;;;30.70;47.60;;;;;;4951181;29;20459;-76
2022/07/09 14:21:22;;;;;;;11.80;11.40;;;30.80;48.30;;;;;;4950993;29;21013;-74
2022/07/09 14:23:50;;;;;;;12.20;11.60;;;30.80;48.90;;;;;;4949807;29;20457;-74
2022/07/09 14:26:17;;;;;;;11.13;10.73;;;30.80;48.20;;;;;;4950973;28;20449;-73
2022/07/09 14:28:43;;;;;;;12.50;12.00;;;30.50;49.10;;;;;;4953024;29;20507;-74
2022/07/09 14:31:10;;;;;;;12.00;11.60;;;30.80;49.10;;;;;;4953127;29;20473;-75
2022/07/09 14:33:37;;;;;;;11.67;11.17;;;31.00;48.80;;;;;;4953022;29;20449;-73
2022/07/09 14:36:04;;;;;;;13.40;12.67;;;31.00;48.80;;;;;;4952759;29;20455;-74
2022/07/09 14:38:30;;;;;;;13.57;12.87;;;30.50;48.40;;;;;;4952961;29;20455;-73
2022/07/09 14:40:58;;;;;;;12.67;12.17;;;30.30;48.70;;;;;;4952831;29;20491;-74
2022/07/09 14:43:26;;;;;;;11.30;10.90;;;30.70;49.20;;;;;;4949756;29;20444;-74
2022/07/09 14:45:53;;;;;;;12.40;11.90;;;31.00;49.30;;;;;;4953257;29;20484;-74
2022/07/09 14:48:20;;;;;;;12.80;12.30;;;31.50;47.60;;;;;;4952219;29;20545;-74
2022/07/09 14:50:46;;;;;;;12.20;11.80;;;31.10;47.80;;;;;;4953570;29;20516;-74
2022/07/09 14:53:13;;;;;;;12.50;12.00;;;30.90;48.10;;;;;;4953529;29;20459;-74
2022/07/09 14:55:40;;;;;;;12.67;12.07;;;30.70;48.30;;;;;;4953808;29;20452;-74
2022/07/09 14:58:08;;;;;;;12.67;12.17;;;30.60;49.00;;;;;;4953688;29;20468;-73
2022/07/09 15:00:34;;;;;;;11.90;11.50;;;30.80;48.70;;;;;;4953466;29;20986;-73
2022/07/09 15:03:01;;;;;;;13.13;12.53;;;31.10;48.40;;;;;;4953516;29;20460;-72
2022/07/09 15:05:28;;;;;;;12.70;12.20;;;31.50;48.30;;;;;;4953468;29;20456;-73
2022/07/09 15:07:54;;;;;;;12.47;12.00;;;31.20;48.60;;;;;;4953665;29;20927;-73
2022/07/09 15:10:21;;;;;;;11.60;11.20;;;31.00;49.00;;;;;;4953518;29;20892;-73
2022/07/09 15:12:48;;;;;;;11.90;11.40;;;30.90;48.60;;;;;;4953185;29;20512;-73
2022/07/09 15:15:16;;;;;;;10.97;10.47;;;30.50;49.60;;;;;;4953407;29;20855;-74
2022/07/09 15:17:42;;;;;;;11.63;11.23;;;30.30;50.60;;;;;;4953348;29;20543;-73
2022/07/09 15:20:11;;;;;;;12.20;11.70;;;30.10;50.40;;;;;;4953518;29;20488;-74
2022/07/09 15:22:37;;;;;;;11.63;11.23;;;30.00;50.20;;;;;;4953465;29;20488;-74
2022/07/09 15:25:05;;;;;;;12.73;12.23;;;30.00;50.60;;;;;;4953050;29;20460;-73
2022/07/09 15:27:32;;;;;;;12.13;11.63;;;29.60;49.60;;;;;;4953083;29;20552;-73
2022/07/09 15:30:00;;;;;;;11.97;11.47;;;29.30;49.50;;;;;;4953138;29;20452;-73
2022/07/09 15:32:28;;;;;;;12.23;11.70;;;29.10;49.80;;;;;;4953099;29;20452;-75
2022/07/09 15:34:55;;;;;;;11.90;11.40;;;28.80;50.00;;;;;;4953111;29;20523;-72
2022/07/09 15:37:21;;;;;;;12.30;11.90;;;28.50;50.10;;;;;;4952409;28;20496;-72
2022/07/09 15:39:48;;;;;;;11.70;11.30;;;28.30;49.90;;;;;;4952945;29;20535;-73
2022/07/09 15:42:17;;;;;;;11.50;11.10;;;28.20;50.60;;;;;;4952957;29;20453;-75
2022/07/09 15:44:44;;;;;;;12.53;12.00;;;28.20;51.90;;;;;;4953267;29;20488;-73
2022/07/09 15:47:10;;;;;;;12.77;12.17;;;28.20;52.90;;;;;;4953411;29;20452;-74